createdAt,value
2022-11-02T00:00:51.645Z,1.80
2022-11-02T00:01:51.713Z,1.30
2022-11-02T00:02:51.661Z,1.80
2022-11-02T00:03:51.590Z,1.30
2022-11-02T00:04:51.582Z,1.80
2022-11-02T00:05:51.568Z,1.10
2022-11-02T00:06:51.565Z,1.60
2022-11-02T00:07:51.542Z,1.50
2022-11-02T00:08:51.533Z,1.50
2022-11-02T00:09:51.520Z,1.40
2022-11-02T00:10:51.527Z,1.40
2022-11-02T00:11:51.495Z,1.60
2022-11-02T00:12:51.490Z,1.10
2022-11-02T00:13:51.473Z,1.40
2022-11-02T00:14:51.562Z,1.50
2022-11-02T00:15:51.446Z,1.50
2022-11-02T00:16:51.436Z,1.80
2022-11-02T00:17:51.515Z,1.40
2022-11-02T00:18:51.414Z,1.50
2022-11-02T00:19:51.399Z,1.50
2022-11-02T00:20:51.389Z,1.40
2022-11-02T00:21:51.376Z,1.20
2022-11-02T00:22:51.367Z,1.60
2022-11-02T00:23:51.352Z,1.40
2022-11-02T00:25:51.329Z,1.80
2022-11-02T00:26:51.333Z,1.40
2022-11-02T00:27:51.305Z,1.40
2022-11-02T00:28:51.293Z,1.80
2022-11-02T00:29:51.282Z,1.40
2022-11-02T00:30:51.268Z,1.60
2022-11-02T00:31:51.259Z,1.60
2022-11-02T00:32:51.244Z,1.10
2022-11-02T00:33:51.238Z,1.30
2022-11-02T00:34:51.221Z,1.50
2022-11-02T00:35:51.209Z,1.20
2022-11-02T00:36:55.334Z,1.40
2022-11-02T00:37:51.189Z,1.50
2022-11-02T00:38:51.173Z,1.50
2022-11-02T00:39:51.163Z,2.20
2022-11-02T00:40:51.154Z,1.30
2022-11-02T00:41:51.138Z,1.10
2022-11-02T00:42:51.143Z,1.70
2022-11-02T00:43:51.115Z,1.50
2022-11-02T00:44:51.102Z,1.80
2022-11-02T00:45:51.091Z,1.50
2022-11-02T00:46:51.077Z,1.50
2022-11-02T00:47:51.067Z,1.50
2022-11-02T00:48:51.054Z,1.40
2022-11-02T00:49:51.046Z,1.70
2022-11-02T00:50:51.032Z,1.30
2022-11-02T00:51:51.019Z,1.60
2022-11-02T00:52:51.006Z,1.30
2022-11-02T00:53:50.998Z,1.20
2022-11-02T00:54:50.982Z,1.80
2022-11-02T00:55:50.975Z,1.10
2022-11-02T00:56:51.049Z,1.30
2022-11-02T00:57:50.949Z,1.60
2022-11-02T00:58:50.954Z,1.50
2022-11-02T00:59:50.923Z,1.90
2022-11-02T01:00:50.911Z,1.40
2022-11-02T01:01:51.137Z,1.50
2022-11-02T01:02:51.082Z,1.20
2022-11-02T01:03:50.880Z,1.40
2022-11-02T01:04:50.863Z,1.10
2022-11-02T01:05:50.855Z,1.60
2022-11-02T01:06:50.840Z,2.00
2022-11-02T01:07:50.880Z,1.60
2022-11-02T01:08:50.819Z,1.70
2022-11-02T01:09:50.805Z,1.80
2022-11-02T01:10:50.802Z,1.70
2022-11-02T01:11:50.783Z,1.50
2022-11-02T01:12:50.772Z,1.40
2022-11-02T01:13:50.757Z,1.70
2022-11-02T01:14:50.770Z,1.40
2022-11-02T01:15:50.736Z,1.90
2022-11-02T01:16:50.732Z,1.30
2022-11-02T01:17:50.712Z,1.70
2022-11-02T01:18:50.703Z,1.40
2022-11-02T01:19:50.688Z,1.40
2022-11-02T01:20:50.677Z,2.30
2022-11-02T01:21:50.665Z,1.60
2022-11-02T01:22:50.659Z,2.30
2022-11-02T01:23:50.642Z,1.70
2022-11-02T01:24:50.630Z,1.40
2022-11-02T01:25:50.621Z,1.30
2022-11-02T01:26:50.607Z,1.30
2022-11-02T01:27:50.596Z,1.80
2022-11-02T01:28:50.584Z,1.40
2022-11-02T01:29:50.571Z,1.50
2022-11-02T01:30:50.578Z,1.50
2022-11-02T01:31:50.549Z,1.10
2022-11-02T01:32:50.540Z,1.40
2022-11-02T01:33:50.525Z,1.50
2022-11-02T01:34:50.519Z,1.40
2022-11-02T01:35:50.505Z,1.50
2022-11-02T01:36:50.491Z,1.40
2022-11-02T01:37:50.482Z,1.60
2022-11-02T01:38:50.469Z,2.30
2022-11-02T01:39:50.454Z,1.70
2022-11-02T01:40:50.445Z,1.90
2022-11-02T01:41:50.431Z,1.30
2022-11-02T01:42:50.422Z,1.40
2022-11-02T01:43:50.409Z,1.50
2022-11-02T01:44:50.402Z,1.80
2022-11-02T01:45:50.385Z,1.20
2022-11-02T01:46:50.393Z,1.60
2022-11-02T01:47:50.360Z,1.70
2022-11-02T01:48:50.350Z,1.30
2022-11-02T01:49:50.339Z,1.30
2022-11-02T01:50:50.329Z,1.60
2022-11-02T01:51:50.315Z,1.30
2022-11-02T01:52:50.306Z,1.80
2022-11-02T01:53:50.292Z,2.00
2022-11-02T01:54:50.281Z,1.80
2022-11-02T01:55:50.271Z,1.80
2022-11-02T01:56:50.262Z,1.60
2022-11-02T01:57:50.245Z,2.00
2022-11-02T01:58:50.236Z,1.90
2022-11-02T01:59:50.220Z,2.20
2022-11-02T02:00:50.211Z,2.20
2022-11-02T02:01:50.379Z,2.00
2022-11-02T02:02:50.257Z,1.70
2022-11-02T02:03:50.174Z,1.80
2022-11-02T02:04:50.165Z,2.10
2022-11-02T02:05:50.151Z,2.60
2022-11-02T02:06:50.145Z,1.90
2022-11-02T02:07:50.126Z,2.10
2022-11-02T02:08:50.118Z,2.10
2022-11-02T02:09:51.441Z,2.10
2022-11-02T02:10:50.094Z,2.10
2022-11-02T02:11:50.079Z,2.20
2022-11-02T02:12:50.072Z,2.20
2022-11-02T02:13:50.057Z,2.20
2022-11-02T02:14:50.047Z,2.90
2022-11-02T02:15:50.033Z,2.20
2022-11-02T02:16:50.038Z,2.20
2022-11-02T02:17:50.011Z,2.50
2022-11-02T02:18:50.021Z,2.60
2022-11-02T02:19:49.987Z,2.30
2022-11-02T02:20:49.978Z,2.20
2022-11-02T02:21:49.964Z,2.00
2022-11-02T02:22:49.958Z,2.40
2022-11-02T02:23:49.940Z,2.60
2022-11-02T02:24:49.930Z,2.40
2022-11-02T02:25:49.917Z,2.20
2022-11-02T02:26:49.907Z,2.20
2022-11-02T02:27:49.893Z,2.40
2022-11-02T02:28:49.884Z,2.30
2022-11-02T02:29:49.869Z,2.20
2022-11-02T02:30:49.861Z,2.60
2022-11-02T02:31:49.846Z,2.50
2022-11-02T02:32:49.838Z,2.50
2022-11-02T02:33:49.833Z,2.40
2022-11-02T02:34:49.832Z,2.80
2022-11-02T02:35:49.799Z,2.40
2022-11-02T02:36:49.804Z,2.60
2022-11-02T02:37:49.777Z,2.30
2022-11-02T02:38:49.765Z,2.50
2022-11-02T02:39:49.753Z,2.30
2022-11-02T02:40:49.743Z,2.30
2022-11-02T02:41:49.730Z,2.20
2022-11-02T02:42:49.736Z,2.30
2022-11-02T02:43:49.707Z,2.50
2022-11-02T02:44:49.697Z,2.10
2022-11-02T02:45:49.683Z,2.40
2022-11-02T02:46:53.605Z,2.40
2022-11-02T02:47:49.659Z,1.80
2022-11-02T02:48:49.651Z,2.50
2022-11-02T02:49:49.636Z,2.70
2022-11-02T02:50:49.644Z,2.30
2022-11-02T02:51:49.613Z,2.60
2022-11-02T02:52:49.604Z,2.30
2022-11-02T02:53:49.592Z,1.90
2022-11-02T02:54:49.583Z,2.50
2022-11-02T02:55:49.568Z,2.30
2022-11-02T02:56:49.558Z,2.40
2022-11-02T02:57:49.545Z,2.50
2022-11-02T02:58:49.535Z,2.20
2022-11-02T02:59:49.519Z,2.70
2022-11-02T03:00:49.511Z,2.40
2022-11-02T03:01:49.643Z,2.70
2022-11-02T03:02:49.488Z,2.70
2022-11-02T03:03:49.474Z,2.10
2022-11-02T03:04:49.463Z,2.20
2022-11-02T03:05:49.451Z,2.10
2022-11-02T03:06:49.461Z,2.60
2022-11-02T03:07:49.427Z,2.20
2022-11-02T03:08:49.420Z,2.20
2022-11-02T03:09:49.405Z,2.60
2022-11-02T03:10:49.395Z,2.80
2022-11-02T03:11:49.381Z,2.30
2022-11-02T03:12:49.371Z,2.40
2022-11-02T03:13:49.359Z,2.30
2022-11-02T03:14:49.350Z,2.80
2022-11-02T03:15:49.334Z,2.50
2022-11-02T03:16:49.376Z,2.60
2022-11-02T03:17:49.317Z,2.40
2022-11-02T03:18:49.303Z,2.90
2022-11-02T03:19:49.302Z,3.20
2022-11-02T03:20:49.279Z,2.70
2022-11-02T03:21:49.268Z,2.10
2022-11-02T03:22:49.276Z,2.40
2022-11-02T03:23:49.241Z,2.60
2022-11-02T03:24:49.231Z,2.10
2022-11-02T03:25:49.221Z,2.70
2022-11-02T03:26:49.211Z,2.50
2022-11-02T03:27:49.196Z,2.40
2022-11-02T03:28:49.186Z,2.30
2022-11-02T03:29:49.173Z,2.40
2022-11-02T03:30:49.163Z,2.30
2022-11-02T03:31:49.250Z,2.40
2022-11-02T03:32:49.142Z,2.40
2022-11-02T03:33:49.126Z,2.30
2022-11-02T03:34:49.118Z,2.30
2022-11-02T03:35:49.103Z,2.40
2022-11-02T03:36:49.098Z,2.50
2022-11-02T03:37:49.079Z,2.30
2022-11-02T03:38:49.090Z,2.50
2022-11-02T03:39:49.056Z,2.90
2022-11-02T03:40:49.047Z,2.40
2022-11-02T03:41:49.032Z,2.70
2022-11-02T03:42:49.039Z,2.70
2022-11-02T03:43:49.010Z,2.40
2022-11-02T03:44:49.001Z,2.60
2022-11-02T03:45:48.987Z,2.50
2022-11-02T03:46:48.977Z,2.90
2022-11-02T03:47:48.963Z,2.40
2022-11-02T03:48:48.952Z,2.20
2022-11-02T03:49:49.041Z,3.00
2022-11-02T03:50:48.931Z,2.70
2022-11-02T03:51:48.918Z,3.00
2022-11-02T03:52:48.907Z,2.20
2022-11-02T03:53:48.895Z,2.70
2022-11-02T03:54:48.906Z,2.40
2022-11-02T03:55:48.886Z,2.80
2022-11-02T03:56:48.862Z,2.50
2022-11-02T03:57:48.846Z,2.40
2022-11-02T03:58:48.841Z,2.50
2022-11-02T03:59:48.823Z,2.60
2022-11-02T04:00:48.813Z,2.50
2022-11-02T04:01:48.948Z,2.50
2022-11-02T04:02:48.811Z,3.00
2022-11-02T04:03:48.845Z,2.40
2022-11-02T04:04:48.767Z,2.40
2022-11-02T04:05:48.753Z,2.50
2022-11-02T04:06:48.744Z,2.30
2022-11-02T04:07:49.956Z,2.90
2022-11-02T04:08:48.721Z,2.50
2022-11-02T04:09:48.707Z,2.50
2022-11-02T04:10:48.715Z,2.60
2022-11-02T04:11:48.684Z,2.80
2022-11-02T04:12:48.674Z,2.60
2022-11-02T04:13:48.661Z,2.90
2022-11-02T04:14:48.651Z,2.30
2022-11-02T04:15:48.637Z,2.70
2022-11-02T04:16:48.631Z,2.30
2022-11-02T04:17:48.613Z,2.50
2022-11-02T04:18:48.605Z,2.60
2022-11-02T04:19:49.933Z,2.40
2022-11-02T04:20:48.581Z,2.20
2022-11-02T04:21:48.568Z,2.60
2022-11-02T04:22:48.558Z,3.30
2022-11-02T04:23:48.545Z,2.70
2022-11-02T04:24:48.535Z,2.70
2022-11-02T04:25:48.521Z,2.60
2022-11-02T04:26:48.532Z,2.50
2022-11-02T04:27:48.498Z,2.50
2022-11-02T04:28:48.488Z,2.40
2022-11-02T04:29:48.486Z,2.70
2022-11-02T04:30:48.466Z,1.90
2022-11-02T04:31:48.466Z,1.60
2022-11-02T04:32:48.447Z,1.40
2022-11-02T04:33:48.429Z,1.90
2022-11-02T04:34:48.420Z,1.80
2022-11-02T04:35:48.404Z,1.60
2022-11-02T04:36:48.398Z,1.70
2022-11-02T04:37:48.382Z,1.90
2022-11-02T04:38:48.372Z,2.50
2022-11-02T04:39:48.361Z,2.20
2022-11-02T04:40:48.349Z,2.40
2022-11-02T04:41:48.337Z,2.80
2022-11-02T04:42:48.346Z,2.70
2022-11-02T04:43:48.323Z,2.30
2022-11-02T04:44:48.304Z,2.50
2022-11-02T04:45:48.290Z,2.20
2022-11-02T04:46:48.281Z,2.60
2022-11-02T04:47:48.266Z,2.70
2022-11-02T04:48:48.257Z,2.70
2022-11-02T04:49:48.243Z,2.20
2022-11-02T04:50:48.235Z,2.80
2022-11-02T04:51:49.907Z,2.40
2022-11-02T04:52:48.214Z,2.30
2022-11-02T04:53:48.196Z,2.20
2022-11-02T04:54:48.189Z,2.30
2022-11-02T04:55:48.176Z,2.40
2022-11-02T04:56:48.164Z,2.20
2022-11-02T04:57:48.153Z,2.50
2022-11-02T04:58:48.164Z,2.30
2022-11-02T04:59:48.129Z,2.50
2022-11-02T05:00:48.120Z,2.30
2022-11-02T05:01:48.218Z,2.40
2022-11-02T05:02:48.221Z,2.50
2022-11-02T05:03:48.084Z,2.00
2022-11-02T05:04:48.074Z,2.20
2022-11-02T05:05:48.060Z,2.20
2022-11-02T05:06:48.051Z,2.70
2022-11-02T05:07:48.037Z,2.80
2022-11-02T05:08:48.027Z,2.20
2022-11-02T05:09:48.014Z,2.40
2022-11-02T05:10:48.005Z,2.90
2022-11-02T05:11:47.991Z,2.20
2022-11-02T05:12:47.981Z,2.80
2022-11-02T05:13:47.971Z,2.50
2022-11-02T05:14:47.978Z,2.80
2022-11-02T05:15:47.943Z,2.90
2022-11-02T05:16:47.935Z,2.70
2022-11-02T05:17:47.920Z,2.60
2022-11-02T05:18:47.911Z,2.80
2022-11-02T05:19:47.897Z,2.80
2022-11-02T05:20:47.888Z,2.80
2022-11-02T05:21:47.874Z,2.90
2022-11-02T05:22:47.881Z,2.70
2022-11-02T05:23:47.855Z,3.10
2022-11-02T05:24:47.838Z,2.90
2022-11-02T05:25:47.830Z,2.80
2022-11-02T05:26:51.324Z,3.00
2022-11-02T05:27:47.806Z,2.30
2022-11-02T05:28:47.792Z,1.00
2022-11-02T05:29:47.783Z,1.30
2022-11-02T05:30:47.788Z,1.90
2022-11-02T05:31:47.759Z,2.10
2022-11-02T05:32:47.746Z,2.10
2022-11-02T05:33:47.738Z,1.80
2022-11-02T05:34:47.724Z,1.90
2022-11-02T05:35:47.714Z,2.10
2022-11-02T05:36:47.701Z,2.10
2022-11-02T05:37:47.690Z,1.80
2022-11-02T05:38:47.679Z,2.90
2022-11-02T05:39:49.590Z,2.60
2022-11-02T05:40:47.655Z,3.50
2022-11-02T05:41:47.644Z,2.60
2022-11-02T05:42:47.631Z,3.00
2022-11-02T05:43:47.622Z,2.40
2022-11-02T05:44:47.607Z,2.90
2022-11-02T05:45:47.598Z,2.50
2022-11-02T05:46:47.601Z,2.50
2022-11-02T05:47:47.574Z,3.20
2022-11-02T05:48:47.562Z,2.50
2022-11-02T05:49:47.552Z,2.70
2022-11-02T05:50:47.540Z,2.60
2022-11-02T05:51:47.528Z,2.50
2022-11-02T05:52:47.515Z,2.30
2022-11-02T05:53:47.507Z,2.80
2022-11-02T05:54:47.493Z,3.20
2022-11-02T05:55:47.482Z,3.10
2022-11-02T05:56:47.470Z,2.50
2022-11-02T05:57:47.460Z,2.70
2022-11-02T05:58:47.526Z,2.80
2022-11-02T05:59:49.393Z,3.20
2022-11-02T06:00:47.423Z,3.20
2022-11-02T06:01:47.434Z,2.80
2022-11-02T06:02:47.419Z,2.80
2022-11-02T06:03:52.199Z,3.10
2022-11-02T06:04:47.423Z,2.80
2022-11-02T06:05:47.471Z,3.10
2022-11-02T06:06:47.356Z,3.00
2022-11-02T06:07:47.346Z,2.70
2022-11-02T06:08:47.332Z,2.70
2022-11-02T06:09:47.324Z,3.10
2022-11-02T06:10:47.309Z,3.80
2022-11-02T06:11:47.300Z,3.00
2022-11-02T06:12:47.286Z,2.90
2022-11-02T06:13:47.278Z,2.80
2022-11-02T06:14:47.264Z,2.80
2022-11-02T06:15:47.256Z,3.00
2022-11-02T06:16:47.241Z,3.10
2022-11-02T06:17:47.232Z,2.90
2022-11-02T06:18:47.253Z,2.60
2022-11-02T06:19:47.258Z,2.80
2022-11-02T06:20:47.197Z,3.20
2022-11-02T06:21:48.531Z,3.30
2022-11-02T06:22:47.173Z,3.30
2022-11-02T06:23:47.164Z,3.30
2022-11-02T06:24:47.150Z,2.80
2022-11-02T06:25:47.141Z,2.70
2022-11-02T06:26:47.128Z,2.90
2022-11-02T06:27:47.118Z,3.20
2022-11-02T06:28:47.106Z,3.20
2022-11-02T06:29:47.096Z,2.80
2022-11-02T06:30:47.084Z,2.70
2022-11-02T06:31:47.181Z,2.90
2022-11-02T06:32:47.061Z,3.00
2022-11-02T06:33:47.055Z,3.00
2022-11-02T06:34:47.055Z,3.10
2022-11-02T06:35:47.029Z,3.00
2022-11-02T06:36:47.015Z,3.50
2022-11-02T06:37:47.006Z,3.80
2022-11-02T06:38:46.993Z,3.70
2022-11-02T06:39:46.982Z,2.90
2022-11-02T06:40:46.968Z,3.50
2022-11-02T06:41:46.960Z,3.20
2022-11-02T06:43:03.178Z,3.30
2022-11-02T06:43:46.937Z,3.20
2022-11-02T06:44:46.925Z,3.60
2022-11-02T06:45:46.955Z,3.70
2022-11-02T06:46:46.902Z,3.70
2022-11-02T06:47:46.893Z,3.20
2022-11-02T06:48:46.882Z,3.00
2022-11-02T06:49:46.872Z,3.00
2022-11-02T06:50:46.875Z,2.90
2022-11-02T06:51:46.847Z,3.20
2022-11-02T06:52:46.836Z,3.30
2022-11-02T06:53:46.824Z,3.20
2022-11-02T06:54:46.812Z,3.50
2022-11-02T06:55:46.801Z,3.70
2022-11-02T06:56:46.788Z,4.00
2022-11-02T06:57:46.780Z,3.90
2022-11-02T06:58:46.767Z,3.50
2022-11-02T06:59:51.365Z,3.40
2022-11-02T07:00:46.902Z,3.70
2022-11-02T07:01:46.880Z,4.10
2022-11-02T07:02:46.722Z,3.20
2022-11-02T07:03:46.714Z,4.20
2022-11-02T07:04:46.702Z,4.00
2022-11-02T07:05:46.690Z,3.30
2022-11-02T07:06:46.698Z,3.70
2022-11-02T07:07:46.669Z,3.90
2022-11-02T07:08:46.655Z,4.30
2022-11-02T07:09:46.646Z,4.50
2022-11-02T07:10:46.633Z,4.90
2022-11-02T07:11:46.623Z,4.10
2022-11-02T07:12:46.611Z,4.30
2022-11-02T07:13:46.605Z,4.20
2022-11-02T07:14:46.588Z,4.50
2022-11-02T07:15:46.580Z,3.90
2022-11-02T07:16:46.589Z,4.00
2022-11-02T07:17:46.557Z,4.10
2022-11-02T07:18:46.550Z,4.70
2022-11-02T07:19:46.535Z,4.20
2022-11-02T07:20:46.524Z,5.40
2022-11-02T07:21:47.810Z,4.70
2022-11-02T07:22:46.523Z,4.60
2022-11-02T07:23:46.490Z,4.60
2022-11-02T07:24:46.477Z,3.90
2022-11-02T07:25:46.470Z,3.30
2022-11-02T07:26:46.456Z,3.50
2022-11-02T07:27:46.445Z,4.00
2022-11-02T07:28:46.435Z,3.80
2022-11-02T07:29:46.426Z,3.70
2022-11-02T07:30:46.412Z,4.30
2022-11-02T07:31:46.402Z,3.60
2022-11-02T07:32:46.391Z,3.40
2022-11-02T07:33:46.380Z,3.40
2022-11-02T07:34:46.369Z,3.60
2022-11-02T07:35:46.358Z,3.50
2022-11-02T07:36:46.348Z,3.60
2022-11-02T07:37:46.338Z,3.10
2022-11-02T07:38:46.342Z,3.80
2022-11-02T07:39:46.315Z,3.40
2022-11-02T07:40:46.303Z,3.80
2022-11-02T07:41:51.642Z,3.90
2022-11-02T07:42:46.281Z,3.90
2022-11-02T07:43:46.271Z,4.30
2022-11-02T07:44:46.269Z,4.00
2022-11-02T07:45:46.254Z,3.60
2022-11-02T07:46:46.238Z,3.90
2022-11-02T07:47:46.228Z,4.00
2022-11-02T07:48:46.215Z,3.80
2022-11-02T07:49:46.207Z,4.00
2022-11-02T07:50:46.197Z,3.80
2022-11-02T07:51:46.185Z,3.80
2022-11-02T07:52:46.173Z,4.20
2022-11-02T07:53:46.170Z,3.70
2022-11-02T07:54:46.177Z,4.40
2022-11-02T07:55:46.143Z,3.70
2022-11-02T07:56:46.131Z,3.50
2022-11-02T07:57:46.121Z,3.90
2022-11-02T07:58:46.107Z,3.50
2022-11-02T07:59:46.099Z,4.00
2022-11-02T08:00:46.086Z,4.10
2022-11-02T08:01:46.197Z,3.40
2022-11-02T08:02:46.141Z,3.90
2022-11-02T08:03:46.057Z,3.80
2022-11-02T08:04:46.045Z,4.00
2022-11-02T08:05:46.036Z,4.30
2022-11-02T08:06:46.022Z,4.40
2022-11-02T08:07:46.013Z,4.10
2022-11-02T08:08:46.000Z,4.30
2022-11-02T08:09:45.996Z,4.20
2022-11-02T08:10:45.999Z,4.40
2022-11-02T08:11:45.971Z,4.30
2022-11-02T08:12:45.959Z,4.40
2022-11-02T08:13:45.951Z,5.80
2022-11-02T08:14:45.938Z,5.70
2022-11-02T08:15:45.928Z,5.90
2022-11-02T08:16:45.917Z,5.40
2022-11-02T08:17:45.904Z,5.00
2022-11-02T08:18:45.898Z,4.50
2022-11-02T08:19:45.883Z,4.50
2022-11-02T08:20:45.890Z,4.70
2022-11-02T08:21:45.866Z,4.40
2022-11-02T08:22:45.850Z,3.40
2022-11-02T08:23:45.843Z,4.50
2022-11-02T08:24:45.829Z,4.50
2022-11-02T08:25:45.907Z,4.00
2022-11-02T08:26:46.731Z,3.50
2022-11-02T08:27:45.801Z,3.60
2022-11-02T08:28:45.786Z,3.40
2022-11-02T08:29:45.779Z,3.60
2022-11-02T08:30:45.765Z,3.80
2022-11-02T08:31:45.759Z,3.40
2022-11-02T08:32:45.746Z,3.50
2022-11-02T08:33:45.738Z,3.00
2022-11-02T08:34:45.725Z,3.80
2022-11-02T08:35:45.717Z,3.60
2022-11-02T08:36:45.702Z,3.60
2022-11-02T08:37:45.692Z,3.40
2022-11-02T08:38:45.682Z,3.20
2022-11-02T08:39:45.671Z,3.60
2022-11-02T08:40:45.666Z,3.20
2022-11-02T08:41:45.666Z,3.60
2022-11-02T08:42:45.659Z,3.20
2022-11-02T08:43:45.630Z,3.40
2022-11-02T08:44:45.625Z,3.10
2022-11-02T08:46:45.633Z,2.80
2022-11-02T08:47:45.592Z,3.70
2022-11-02T08:48:45.578Z,3.40
2022-11-02T08:49:45.569Z,3.70
2022-11-02T08:50:45.554Z,2.80
2022-11-02T08:51:45.545Z,3.20
2022-11-02T08:52:45.533Z,3.20
2022-11-02T08:53:50.405Z,2.60
2022-11-02T08:54:45.512Z,3.30
2022-11-02T08:55:45.503Z,3.50
2022-11-02T08:56:45.491Z,3.20
2022-11-02T08:57:45.482Z,3.10
2022-11-02T08:58:45.494Z,2.80
2022-11-02T08:59:45.462Z,3.50
2022-11-02T09:00:45.452Z,3.40
2022-11-02T09:01:45.588Z,2.90
2022-11-02T09:02:45.489Z,2.90
2022-11-02T09:03:45.421Z,3.30
2022-11-02T09:04:45.408Z,3.30
2022-11-02T09:05:45.405Z,2.90
2022-11-02T09:06:45.387Z,3.10
2022-11-02T09:07:45.378Z,3.00
2022-11-02T09:08:45.367Z,3.00
2022-11-02T09:09:45.359Z,3.20
2022-11-02T09:10:45.347Z,2.80
2022-11-02T09:11:45.353Z,2.70
2022-11-02T09:12:45.338Z,2.90
2022-11-02T09:13:45.404Z,3.20
2022-11-02T09:14:45.353Z,2.30
2022-11-02T09:15:45.306Z,2.40
2022-11-02T09:16:45.284Z,2.10
2022-11-02T09:17:45.307Z,2.40
2022-11-02T09:18:45.266Z,1.90
2022-11-02T09:19:45.255Z,2.10
2022-11-02T09:20:45.244Z,2.50
2022-11-02T09:21:45.238Z,2.40
2022-11-02T09:22:45.225Z,2.30
2022-11-02T09:23:45.216Z,2.00
2022-11-02T09:24:45.266Z,2.10
2022-11-02T09:25:45.197Z,2.50
2022-11-02T09:26:45.197Z,2.40
2022-11-02T09:27:45.176Z,2.70
2022-11-02T09:28:45.164Z,2.10
2022-11-02T09:29:45.158Z,2.20
2022-11-02T09:30:45.164Z,2.20
2022-11-02T09:31:45.139Z,2.00
2022-11-02T09:32:45.125Z,1.70
2022-11-02T09:33:45.118Z,2.30
2022-11-02T09:34:45.105Z,2.00
2022-11-02T09:35:45.111Z,1.90
2022-11-02T09:36:45.086Z,1.40
2022-11-02T09:37:50.050Z,1.70
2022-11-02T09:38:45.066Z,2.60
2022-11-02T09:39:45.058Z,1.70
2022-11-02T09:40:45.048Z,1.80
2022-11-02T09:41:45.038Z,1.30
2022-11-02T09:42:45.030Z,1.30
2022-11-02T09:43:45.017Z,1.20
2022-11-02T09:44:45.011Z,1.20
2022-11-02T09:45:45.000Z,1.70
2022-11-02T09:46:45.015Z,1.30
2022-11-02T09:48:44.972Z,1.40
2022-11-02T09:49:44.960Z,1.50
2022-11-02T09:50:44.953Z,1.80
2022-11-02T09:51:44.940Z,1.30
2022-11-02T09:52:44.934Z,1.50
2022-11-02T09:53:44.921Z,1.70
2022-11-02T09:54:44.914Z,1.60
2022-11-02T09:55:44.903Z,1.30
2022-11-02T09:56:44.904Z,1.30
2022-11-02T09:57:44.882Z,1.10
2022-11-02T09:58:44.877Z,1.60
2022-11-02T09:59:44.863Z,1.80
2022-11-02T10:00:44.860Z,1.40
2022-11-02T10:01:45.021Z,1.20
2022-11-02T10:02:44.893Z,1.20
2022-11-02T10:03:44.825Z,1.20
2022-11-02T10:04:44.818Z,1.60
2022-11-02T10:05:44.807Z,1.30
2022-11-02T10:06:44.797Z,1.20
2022-11-02T10:07:44.785Z,1.10
2022-11-02T10:08:44.779Z,1.50
2022-11-02T10:09:44.767Z,1.30
2022-11-02T10:10:44.759Z,1.20
2022-11-02T10:11:44.747Z,1.30
2022-11-02T10:12:44.740Z,1.40
2022-11-02T10:13:44.729Z,1.90
2022-11-02T10:14:44.720Z,1.80
2022-11-02T10:15:44.707Z,1.90
2022-11-02T10:16:44.701Z,1.40
2022-11-02T10:17:44.703Z,1.60
2022-11-02T10:18:44.712Z,1.30
2022-11-02T10:19:44.681Z,1.30
2022-11-02T10:20:44.666Z,1.30
2022-11-02T10:21:44.651Z,1.10
2022-11-02T10:22:44.646Z,1.40
2022-11-02T10:23:44.631Z,1.30
2022-11-02T10:24:44.642Z,1.50
2022-11-02T10:25:44.611Z,2.00
2022-11-02T10:26:44.605Z,1.10
2022-11-02T10:27:44.668Z,1.30
2022-11-02T10:28:44.586Z,1.20
2022-11-02T10:29:44.579Z,1.30
2022-11-02T10:30:44.566Z,1.20
2022-11-02T10:31:44.554Z,1.40
2022-11-02T10:32:44.576Z,1.30
2022-11-02T10:33:44.536Z,1.20
2022-11-02T10:34:50.485Z,1.60
2022-11-02T10:36:12.074Z,1.30
2022-11-02T10:36:44.507Z,1.10
2022-11-02T10:37:44.496Z,1.40
2022-11-02T10:38:44.490Z,1.30
2022-11-02T10:39:44.476Z,1.80
2022-11-02T10:40:44.521Z,1.20
2022-11-02T10:41:44.458Z,1.10
2022-11-02T10:42:44.451Z,1.30
2022-11-02T10:43:48.219Z,0.80
2022-11-02T10:44:44.431Z,1.50
2022-11-02T10:45:44.420Z,1.20
2022-11-02T10:46:44.414Z,1.50
2022-11-02T10:47:44.401Z,1.30
2022-11-02T10:48:44.393Z,1.20
2022-11-02T10:49:44.383Z,1.10
2022-11-02T10:50:44.392Z,1.90
2022-11-02T10:51:44.362Z,1.20
2022-11-02T10:52:44.355Z,1.10
2022-11-02T10:53:44.747Z,1.60
2022-11-02T10:54:44.336Z,1.40
2022-11-02T10:55:44.322Z,1.90
2022-11-02T10:56:44.316Z,1.60
2022-11-02T10:57:44.305Z,1.80
2022-11-02T10:58:44.298Z,1.50
2022-11-02T10:59:44.284Z,1.40
2022-11-02T11:00:44.347Z,1.10
2022-11-02T11:01:44.302Z,1.60
2022-11-02T11:02:44.261Z,1.20
2022-11-02T11:03:44.248Z,1.40
2022-11-02T11:04:44.242Z,1.00
2022-11-02T11:05:44.232Z,1.50
2022-11-02T11:07:44.235Z,1.30
2022-11-02T11:08:44.205Z,1.00
2022-11-02T11:09:46.672Z,1.60
2022-11-02T11:10:44.188Z,1.20
2022-11-02T11:11:44.177Z,1.20
2022-11-02T11:12:44.166Z,1.60
2022-11-02T11:16:44.347Z,1.10
2022-11-02T11:19:44.106Z,1.20
2022-11-02T11:20:44.110Z,1.70
2022-11-02T11:21:44.151Z,1.20
2022-11-02T11:22:44.076Z,1.20
2022-11-02T11:23:44.095Z,1.40
2022-11-02T11:24:44.124Z,1.60
2022-11-02T11:25:44.050Z,1.00
2022-11-02T11:26:44.041Z,1.70
2022-11-02T11:27:44.032Z,2.10
2022-11-02T11:28:44.022Z,2.10
2022-11-02T11:29:44.016Z,1.40
2022-11-02T11:30:59.616Z,1.30
2022-11-02T11:31:43.995Z,1.70
2022-11-02T11:32:43.985Z,1.50
2022-11-02T11:33:43.978Z,1.60
2022-11-02T11:34:43.969Z,1.20
2022-11-02T11:35:43.962Z,1.10
2022-11-02T11:36:43.950Z,1.10
2022-11-02T11:37:43.941Z,1.20
2022-11-02T11:38:43.932Z,0.90
2022-11-02T11:39:43.953Z,1.30
2022-11-02T11:40:43.914Z,1.30
2022-11-02T11:41:43.908Z,1.20
2022-11-02T11:42:43.911Z,1.30
2022-11-02T11:43:43.888Z,1.10
2022-11-02T11:44:43.879Z,1.10
2022-11-02T11:45:43.872Z,1.60
2022-11-02T11:46:43.865Z,1.20
2022-11-02T11:47:43.854Z,1.40
2022-11-02T11:48:43.841Z,0.90
2022-11-02T11:50:43.827Z,1.40
2022-11-02T11:51:43.817Z,2.00
2022-11-02T11:52:43.808Z,1.10
2022-11-02T11:53:43.800Z,1.30
2022-11-02T11:54:43.789Z,1.20
2022-11-02T11:55:43.821Z,1.70
2022-11-02T11:56:43.774Z,1.50
2022-11-02T11:57:43.768Z,1.40
2022-11-02T11:58:48.024Z,1.50
2022-11-02T11:59:43.750Z,1.40
2022-11-02T12:00:43.737Z,1.60
2022-11-02T12:01:43.888Z,1.10
2022-11-02T12:02:44.807Z,1.40
2022-11-02T12:03:43.713Z,1.30
2022-11-02T12:04:43.703Z,1.50
2022-11-02T12:05:43.697Z,1.00
2022-11-02T12:06:43.686Z,1.20
2022-11-02T12:07:43.678Z,1.10
2022-11-02T12:08:43.669Z,1.10
2022-11-02T12:09:43.662Z,1.20
2022-11-02T12:10:43.651Z,1.00
2022-11-02T12:11:43.668Z,1.60
2022-11-02T12:12:43.636Z,1.20
2022-11-02T12:13:43.632Z,1.30
2022-11-02T12:14:43.617Z,1.50
2022-11-02T12:15:43.614Z,1.20
2022-11-02T12:16:43.612Z,1.50
2022-11-02T12:17:43.621Z,1.20
2022-11-02T12:18:43.583Z,1.40
2022-11-02T12:19:43.576Z,1.50
2022-11-02T12:20:43.566Z,1.30
2022-11-02T12:21:43.562Z,1.30
2022-11-02T12:22:43.550Z,1.20
2022-11-02T12:23:43.545Z,1.10
2022-11-02T12:24:43.532Z,1.30
2022-11-02T12:25:43.525Z,1.60
2022-11-02T12:26:43.515Z,1.00
2022-11-02T12:27:43.545Z,1.20
2022-11-02T12:28:43.498Z,1.50
2022-11-02T12:29:43.491Z,1.20
2022-11-02T12:30:43.481Z,1.40
2022-11-02T12:31:43.475Z,1.40
2022-11-02T12:32:43.465Z,1.30
2022-11-02T12:33:43.458Z,1.00
2022-11-02T12:34:46.570Z,1.10
2022-11-02T12:35:43.439Z,1.10
2022-11-02T12:37:11.205Z,1.40
2022-11-02T12:37:43.425Z,1.50
2022-11-02T12:38:43.414Z,1.20
2022-11-02T12:39:43.408Z,1.30
2022-11-02T12:40:43.399Z,1.60
2022-11-02T12:41:43.394Z,1.90
2022-11-02T12:42:43.527Z,1.50
2022-11-02T12:43:43.402Z,1.40
2022-11-02T12:44:43.364Z,1.60
2022-11-02T12:45:43.358Z,1.70
2022-11-02T12:46:48.736Z,1.60
2022-11-02T12:47:43.342Z,2.00
2022-11-02T12:48:43.330Z,1.40
2022-11-02T12:49:43.324Z,1.40
2022-11-02T12:50:43.314Z,1.80
2022-11-02T12:51:43.306Z,1.80
2022-11-02T12:52:43.298Z,1.30
2022-11-02T12:53:43.344Z,1.30
2022-11-02T12:54:43.279Z,1.40
2022-11-02T12:55:43.273Z,2.00
2022-11-02T12:56:43.262Z,1.50
2022-11-02T12:57:43.255Z,1.20
2022-11-02T12:58:43.246Z,1.50
2022-11-02T12:59:43.261Z,1.20
2022-11-02T13:00:43.271Z,1.90
2022-11-02T13:01:43.479Z,1.20
2022-11-02T13:02:43.213Z,1.60
2022-11-02T13:03:43.206Z,1.60
2022-11-02T13:04:43.195Z,1.20
2022-11-02T13:05:43.304Z,1.30
2022-11-02T13:06:43.180Z,1.10
2022-11-02T13:07:43.172Z,1.40
2022-11-02T13:08:43.163Z,1.20
2022-11-02T13:09:45.412Z,1.20
2022-11-02T13:10:43.151Z,1.40
2022-11-02T13:11:43.138Z,1.60
2022-11-02T13:12:43.137Z,1.30
2022-11-02T13:13:43.123Z,1.20
2022-11-02T13:14:43.111Z,1.20
2022-11-02T13:15:43.128Z,1.30
2022-11-02T13:16:43.096Z,1.30
2022-11-02T13:17:43.089Z,1.30
2022-11-02T13:18:43.078Z,1.50
2022-11-02T13:19:43.072Z,1.50
2022-11-02T13:20:43.062Z,1.30
2022-11-02T13:21:44.435Z,1.20
2022-11-02T13:22:43.047Z,1.50
2022-11-02T13:23:43.042Z,1.40
2022-11-02T13:24:43.029Z,1.30
2022-11-02T13:25:43.023Z,1.00
2022-11-02T13:26:43.017Z,1.20
2022-11-02T13:27:43.005Z,1.50
2022-11-02T13:28:43.000Z,1.30